Time;durP1;ratioP1;P1;durP2;ratioP2;P2;SDS_P1;SDS_P2;PMS_P1;PMS_P2;Temp;Humidity;BMP_temperature;BMP_pressure;BME280_temperature;BME280_humidity;BME280_pressure;Samples;Min_cycle;Max_cycle;Signal;HPM_P1;HPM_P2
2022/07/26 00:01:27;;;;;;;10.83;3.10;;;;;;;15.96;100.00;100416.00;5013636;28;20088;-74
2022/07/26 00:03:53;;;;;;;9.90;3.25;;;;;;;15.89;100.00;100429.44;5018865;28;20029;-75
2022/07/26 00:06:19;;;;;;;;;;;;;;;15.93;100.00;100419.94;5015714;28;20041;-75
2022/07/26 00:08:44;;;;;;;10.00;3.05;;;;;;;15.96;100.00;100422.22;5017828;28;19967;-75
2022/07/26 00:11:10;;;;;;;7.30;2.87;;;;;;;15.92;100.00;100422.81;5015181;28;20068;-74
2022/07/26 00:13:35;;;;;;;9.70;2.77;;;;;;;15.85;100.00;100414.78;5017758;28;20033;-73
2022/07/26 00:16:01;;;;;;;11.77;2.47;;;;;;;15.87;100.00;100409.16;5014736;28;20033;-74
2022/07/26 00:18:27;;;;;;;10.55;2.35;;;;;;;15.91;100.00;100415.78;5017814;28;20055;-75
2022/07/26 00:20:52;;;;;;;12.30;2.93;;;;;;;15.83;100.00;100414.97;5017569;28;20561;-76
2022/07/26 00:23:20;;;;;;;8.23;2.97;;;;;;;15.84;100.00;100410.41;4999583;28;20469;-75
2022/07/26 00:25:46;;;;;;;10.68;2.53;;;;;;;15.85;100.00;100411.22;5013975;28;20287;-77
2022/07/26 00:28:11;;;;;;;15.20;2.97;;;;;;;15.85;100.00;100420.16;5015480;28;20043;-77
2022/07/26 00:30:37;;;;;;;7.75;2.80;;;;;;;15.88;100.00;100411.66;5018618;28;20545;-73
2022/07/26 00:33:03;;;;;;;12.52;2.97;;;;;;;15.89;100.00;100413.31;5018839;28;20044;-72
2022/07/26 00:35:29;;;;;;;9.48;3.05;;;;;;;15.90;100.00;100398.81;5007673;28;20030;-75
2022/07/26 00:37:55;;;;;;;13.63;3.42;;;;;;;15.93;100.00;100408.34;5014286;28;20029;-74
2022/07/26 00:40:20;;;;;;;6.82;2.65;;;;;;;15.91;100.00;100411.25;5015429;28;20446;-74
2022/07/26 00:42:46;;;;;;;7.43;3.10;;;;;;;15.91;100.00;100405.03;5015665;28;20176;-74
2022/07/26 00:45:12;;;;;;;7.83;2.70;;;;;;;15.99;100.00;100418.28;5010822;28;20160;-75
2022/07/26 00:47:38;;;;;;;13.90;3.20;;;;;;;15.93;100.00;100408.34;5018480;28;20052;-72
2022/07/26 00:50:06;;;;;;;15.57;2.70;;;;;;;15.98;100.00;100412.06;5018291;28;20467;-74
2022/07/26 00:52:32;;;;;;;8.55;2.88;;;;;;;15.99;100.00;100402.97;5013576;28;20156;-74
2022/07/26 00:54:58;;;;;;;12.98;4.25;;;;;;;16.01;100.00;100405.44;5013591;28;20128;-72
2022/07/26 00:57:24;;;;;;;11.57;3.20;;;;;;;15.96;100.00;100402.53;5018807;28;20034;-74
2022/07/26 00:59:49;;;;;;;9.20;2.75;;;;;;;15.97;100.00;100406.91;5012839;28;20773;-74
2022/07/26 01:02:16;;;;;;;11.85;3.60;;;;;;;15.93;100.00;100398.41;5015465;28;20620;-74
2022/07/26 01:04:45;;;;;;;11.32;3.70;;;;;;;15.93;100.00;100405.66;5014873;28;20160;-73
2022/07/26 01:07:11;;;;;;;10.88;3.33;;;;;;;15.90;100.00;100409.59;4997646;28;20026;-77
2022/07/26 01:09:38;;;;;;;6.60;3.03;;;;;;;15.87;100.00;100404.59;5018202;28;20049;-75
2022/07/26 01:12:03;;;;;;;10.25;3.10;;;;;;;15.87;100.00;100415.38;5016987;28;20029;-76
2022/07/26 01:14:29;;;;;;;10.75;3.30;;;;;;;15.81;100.00;100417.03;5033544;28;20497;-77
2022/07/26 01:16:55;;;;;;;11.10;3.40;;;;;;;15.82;100.00;100417.84;5013301;28;20022;-77
2022/07/26 01:19:20;;;;;;;11.30;3.20;;;;;;;15.78;100.00;100419.28;5015590;28;20026;-76
2022/07/26 01:21:46;;;;;;;8.85;2.95;;;;;;;15.77;100.00;100420.34;5002920;28;20026;-76
2022/07/26 01:24:11;;;;;;;8.50;3.10;;;;;;;15.79;100.00;100427.16;5014204;28;20437;-76
2022/07/26 01:26:37;;;;;;;13.13;3.00;;;;;;;15.77;100.00;100423.03;5015520;28;20884;-77
2022/07/26 01:29:03;;;;;;;12.35;3.47;;;;;;;15.77;100.00;100426.53;5012988;28;20553;-74
2022/07/26 01:31:28;;;;;;;13.48;3.63;;;;;;;15.77;100.00;100436.47;5001624;28;20030;-77
2022/07/26 01:33:54;;;;;;;17.30;3.73;;;;;;;15.80;100.00;100419.91;5008766;28;20479;-76
2022/07/26 01:36:19;;;;;;;12.20;3.53;;;;;;;15.76;100.00;100424.88;5018331;28;20029;-77
2022/07/26 01:38:45;;;;;;;11.43;3.20;;;;;;;15.73;100.00;100419.06;5013149;28;20354;-77
2022/07/26 01:41:10;;;;;;;7.70;3.53;;;;;;;15.71;100.00;100421.13;5016278;28;20363;-74
2022/07/26 01:43:36;;;;;;;10.02;3.85;;;;;;;15.74;100.00;100415.38;5009393;28;20025;-75
2022/07/26 01:46:04;;;;;;;8.75;3.80;;;;;;;15.69;100.00;100432.09;5012529;28;20542;-77
2022/07/26 01:48:29;;;;;;;13.50;4.97;;;;;;;15.65;100.00;100416.56;5017665;28;20030;-76
2022/07/26 01:50:55;;;;;;;12.75;4.15;;;;;;;15.62;100.00;100417.78;4996227;28;20033;-77
2022/07/26 01:53:20;;;;;;;11.77;3.67;;;;;;;15.63;100.00;100416.75;4998813;28;20049;-77
2022/07/26 01:55:45;;;;;;;8.10;3.70;;;;;;;15.56;100.00;100403.28;5010517;28;20071;-77
2022/07/26 01:58:11;;;;;;;13.23;4.17;;;;;;;15.59;100.00;100412.81;5013970;28;20033;-77
2022/07/26 02:00:36;;;;;;;8.93;4.40;;;;;;;15.54;100.00;100408.03;5015471;28;20543;-77
2022/07/26 02:03:02;;;;;;;12.03;4.30;;;;;;;15.55;100.00;100408.88;5012879;28;20084;-77
2022/07/26 02:05:27;;;;;;;12.23;3.90;;;;;;;15.61;100.00;100414.25;5014806;28;20430;-75
2022/07/26 02:07:53;;;;;;;13.20;4.03;;;;;;;15.58;100.00;100411.16;5013407;28;20038;-75
2022/07/26 02:10:18;;;;;;;16.03;6.10;;;;;;;15.55;100.00;100407.00;5014822;28;20498;-77
2022/07/26 02:12:44;;;;;;;11.17;4.13;;;;;;;15.53;100.00;100410.94;5013330;28;20037;-76
2022/07/26 02:15:10;;;;;;;13.93;4.40;;;;;;;15.51;100.00;100421.91;5012360;28;20359;-76
2022/07/26 02:17:36;;;;;;;11.20;5.25;;;;;;;15.49;100.00;100423.97;5014437;28;20087;-76
2022/07/26 02:20:03;;;;;;;10.27;4.68;;;;;;;15.45;100.00;100422.69;5015466;28;20611;-77
2022/07/26 02:22:28;;;;;;;18.23;4.97;;;;;;;15.43;100.00;100432.00;5019028;28;20045;-77
2022/07/26 02:24:54;;;;;;;10.10;4.90;;;;;;;15.45;100.00;100433.47;5017265;28;20026;-77
2022/07/26 02:27:19;;;;;;;15.37;5.00;;;;;;;15.45;100.00;100433.47;5017904;28;20476;-77
2022/07/26 02:29:45;;;;;;;12.20;4.43;;;;;;;15.49;100.00;100423.13;5016943;28;20021;-77
2022/07/26 02:32:11;;;;;;;10.18;4.85;;;;;;;15.49;100.00;100423.97;5017706;28;20690;-77
2022/07/26 02:34:36;;;;;;;12.90;4.57;;;;;;;15.55;100.00;100435.78;5019383;28;20057;-76
2022/07/26 02:37:02;;;;;;;11.07;4.97;;;;;;;15.56;100.00;100414.03;5016799;28;20038;-77
2022/07/26 02:39:27;;;;;;;16.20;4.93;;;;;;;15.62;100.00;100431.25;5018244;28;20420;-76
2022/07/26 02:41:55;;;;;;;15.98;5.32;;;;;;;15.64;100.00;100434.56;5016382;28;20207;-76
2022/07/26 02:44:20;;;;;;;22.33;7.25;;;;;;;15.59;100.00;100434.31;5019450;28;20486;-76
2022/07/26 02:46:46;;;;;;;11.82;4.97;;;;;;;15.56;100.00;100423.97;5016487;28;20037;-77
2022/07/26 02:49:11;;;;;;;13.90;4.90;;;;;;;15.57;100.00;100431.84;5015993;28;20083;-76
2022/07/26 02:51:37;;;;;;;12.73;4.90;;;;;;;15.62;100.00;100434.75;5034286;28;20513;-76
2022/07/26 02:54:02;;;;;;;14.67;4.73;;;;;;;15.55;100.00;100433.91;5015298;28;20030;-77
2022/07/26 02:56:28;;;;;;;10.47;4.73;;;;;;;15.61;100.00;100440.34;5018522;28;20406;-74
2022/07/26 02:58:54;;;;;;;16.05;5.97;;;;;;;15.65;100.00;100438.09;5015564;28;20060;-75
2022/07/26 03:01:19;;;;;;;15.30;5.27;;;;;;;15.68;100.00;100443.06;5016670;28;20069;-77
2022/07/26 03:03:45;;;;;;;12.90;4.73;;;;;;;15.79;100.00;100445.19;5010620;23;20030;-92
2022/07/26 03:06:10;;;;;;;14.02;6.22;;;;;;;15.75;100.00;100438.53;5030730;28;20045;-92
2022/07/26 03:08:36;;;;;;;17.58;5.57;;;;;;;15.73;100.00;100443.28;5026214;28;20023;-92
2022/07/26 03:11:01;;;;;;;15.00;4.67;;;;;;;15.72;100.00;100447.03;5002667;28;20045;-92
2022/07/26 03:13:26;;;;;;;11.80;5.23;;;;;;;15.71;100.00;100450.75;5002923;28;20026;-91
2022/07/26 03:15:52;;;;;;;18.17;5.43;;;;;;;15.67;100.00;100453.00;5002511;28;20046;-91
2022/07/26 03:18:17;;;;;;;14.70;5.20;;;;;;;15.66;100.00;100451.31;4985615;28;20030;-92
2022/07/26 03:20:43;;;;;;;14.07;4.97;;;;;;;15.68;100.00;100451.94;5048947;23;20056;-73
2022/07/26 03:23:08;;;;;;;14.97;4.73;;;;;;;15.68;100.00;100443.88;5026637;28;20108;-74
2022/07/26 03:25:34;;;;;;;15.67;5.10;;;;;;;15.69;100.00;100453.63;5026613;28;20288;-73
2022/07/26 03:27:59;;;;;;;14.67;4.97;;;;;;;15.75;100.00;100460.91;5026626;28;20033;-74
2022/07/26 03:30:24;;;;;;;18.40;4.70;;;;;;;15.82;100.00;100456.34;5025690;28;20044;-74
2022/07/26 03:32:50;;;;;;;18.10;6.93;;;;;;;15.82;100.00;100453.66;5027956;28;20072;-73
2022/07/26 03:35:16;;;;;;;10.90;4.30;;;;;;;15.86;100.00;100450.59;5042821;22;20796;-76
2022/07/26 03:37:41;;;;;;;13.05;4.53;;;;;;;15.87;100.00;100461.13;5042939;28;20743;-76
2022/07/26 03:40:07;;;;;;;15.87;5.03;;;;;;;15.89;100.00;100456.38;5009517;28;20573;-77
2022/07/26 03:42:34;;;;;;;15.13;5.50;;;;;;;15.90;100.00;100463.44;5029958;28;20451;-75
2022/07/26 03:44:59;;;;;;;12.77;6.03;;;;;;;15.88;100.00;100453.91;5027571;28;20040;-77
2022/07/26 03:47:25;;;;;;;11.17;4.93;;;;;;;15.98;100.00;100457.84;5026272;28;20013;-77
2022/07/26 03:49:50;;;;;;;20.20;5.17;;;;;;;16.10;100.00;100465.31;5025946;28;20076;-77
2022/07/26 03:52:16;;;;;;;27.93;5.77;;;;;;;16.10;100.00;100447.28;5027390;28;20052;-77
2022/07/26 03:54:41;;;;;;;17.40;5.83;;;;;;;16.09;100.00;100452.91;5027992;28;20056;-77
2022/07/26 03:57:07;;;;;;;15.60;4.63;;;;;;;16.05;100.00;100457.84;5026450;28;20048;-76
2022/07/26 03:59:32;;;;;;;17.27;5.23;;;;;;;16.03;100.00;100452.66;5026337;28;20041;-77
2022/07/26 04:01:57;;;;;;;19.13;5.67;;;;;;;16.04;100.00;100456.22;5028439;28;20025;-75
2022/07/26 04:04:23;;;;;;;17.10;5.97;;;;;;;16.08;100.00;100453.91;5027940;28;20037;-76
2022/07/26 04:06:48;;;;;;;19.93;6.23;;;;;;;16.01;100.00;100453.91;5026576;28;20044;-77
2022/07/26 04:09:14;;;;;;;13.60;6.67;;;;;;;16.09;100.00;100469.88;5027400;28;20132;-77
2022/07/26 04:11:41;;;;;;;13.50;7.03;;;;;;;16.11;100.00;100470.50;5026018;28;20071;-77
2022/07/26 04:14:07;;;;;;;21.17;5.72;;;;;;;16.08;100.00;100470.06;5025986;28;20064;-77
2022/07/26 04:16:32;;;;;;;16.25;5.68;;;;;;;16.06;100.00;100469.44;5027128;28;20056;-75
2022/07/26 04:18:58;;;;;;;17.67;5.30;;;;;;;16.01;100.00;100470.06;5025745;28;20056;-77
2022/07/26 04:21:23;;;;;;;12.63;5.63;;;;;;;15.97;100.00;100475.03;5025265;28;20033;-76
2022/07/26 04:23:49;;;;;;;15.77;5.53;;;;;;;15.99;100.00;100467.59;5025164;28;20120;-76
2022/07/26 04:26:15;;;;;;;9.95;4.97;;;;;;;15.95;100.00;100471.72;5025307;28;20021;-76
2022/07/26 04:28:41;;;;;;;15.90;5.47;;;;;;;15.93;100.00;100473.78;5026769;28;20033;-76
2022/07/26 04:31:07;;;;;;;16.58;5.15;;;;;;;15.89;100.00;100472.53;5025360;28;20124;-76
2022/07/26 04:33:33;;;;;;;9.95;4.85;;;;;;;15.88;100.00;100476.25;5026973;28;20413;-74
2022/07/26 04:35:59;;;;;;;14.30;5.43;;;;;;;15.95;100.00;100481.66;5027095;28;20033;-76
2022/07/26 04:38:25;;;;;;;7.68;4.93;;;;;;;16.08;100.00;100475.47;5024124;28;20398;-76
2022/07/26 04:40:50;;;;;;;16.73;4.80;;;;;;;16.14;100.00;100471.97;5024036;28;20029;-76
2022/07/26 04:43:18;;;;;;;16.05;5.57;;;;;;;16.18;100.00;100474.03;5025249;28;20033;-76
2022/07/26 04:45:44;;;;;;;13.50;6.10;;;;;;;16.15;100.00;100470.91;5026336;28;20050;-77
2022/07/26 04:48:10;;;;;;;11.05;4.53;;;;;;;16.21;100.00;100475.47;5025150;28;20043;-76
2022/07/26 04:50:35;;;;;;;13.93;4.40;;;;;;;16.25;100.00;100466.78;5024734;28;20382;-75
2022/07/26 04:53:03;;;;;;;11.93;4.30;;;;;;;16.32;100.00;100466.78;5025096;28;20116;-76
2022/07/26 04:55:29;;;;;;;13.33;5.03;;;;;;;16.25;100.00;100449.81;5028832;28;20163;-76
2022/07/26 04:57:54;;;;;;;11.15;5.35;;;;;;;16.33;100.00;100452.28;5024981;28;20034;-77
2022/07/26 05:00:23;;;;;;;21.50;4.60;;;;;;;16.38;100.00;100457.88;5024691;28;20059;-75
2022/07/26 05:02:51;;;;;;;13.25;5.10;;;;;;;16.52;100.00;100455.16;5024920;28;20463;-76
2022/07/26 05:05:16;;;;;;;8.50;3.95;;;;;;;16.73;100.00;100452.22;5024483;28;20032;-76
2022/07/26 05:07:47;;;;;;;12.47;4.00;;;;;;;16.84;100.00;100442.72;5024754;28;20029;-76
2022/07/26 05:10:14;;;;;;;14.07;4.82;;;;;;;16.76;100.00;100446.41;5024433;28;20395;-75
2022/07/26 05:12:39;;;;;;;9.57;4.32;;;;;;;16.82;100.00;100456.41;5025504;28;20035;-77
2022/07/26 05:15:06;;;;;;;9.40;4.57;;;;;;;16.92;100.00;100453.25;5024285;28;20482;-77
2022/07/26 05:17:31;;;;;;;;;;;;;;;16.88;100.00;100460.97;5024999;28;20709;-77
2022/07/26 05:19:57;;;;;;;12.77;4.70;;;;;;;16.91;100.00;100448.09;5021755;28;19960;-76
2022/07/26 05:22:22;;;;;;;13.17;4.70;;;;;;;16.85;100.00;100452.44;5024536;28;20474;-74
2022/07/26 05:24:48;;;;;;;9.33;4.03;;;;;;;16.85;100.00;100465.94;5025881;28;20661;-76
2022/07/26 05:27:13;;;;;;;11.43;4.67;;;;;;;16.87;100.00;100453.06;5006972;28;20327;-77
2022/07/26 05:29:39;;;;;;;9.77;4.40;;;;;;;16.82;100.00;100451.00;5023421;28;20068;-75
2022/07/26 05:32:19;;;;;;;8.00;4.95;;;;;;;16.73;100.00;100468.41;4958865;28;20112;-77
2022/07/26 05:34:45;;;;;;;11.23;4.60;;;;;;;16.77;100.00;100468.84;5023946;28;20029;-75
2022/07/26 05:37:11;;;;;;;10.17;4.53;;;;;;;16.66;100.00;100475.69;5024987;28;20044;-76
2022/07/26 05:39:36;;;;;;;10.57;4.15;;;;;;;16.81;100.00;100484.41;5024793;28;20091;-76
2022/07/26 05:42:02;;;;;;;10.50;2.80;;;;;;;16.79;100.00;100475.69;5006108;28;20588;-77
2022/07/26 05:44:27;;;;;;;9.27;3.93;;;;;;;16.82;100.00;100485.22;5025519;28;20039;-77
2022/07/26 05:46:52;;;;;;;10.17;3.20;;;;;;;16.79;100.00;100477.56;5025155;28;20033;-76
2022/07/26 05:49:19;;;;;;;6.67;3.57;;;;;;;16.75;100.00;100479.81;5024785;28;20045;-77
2022/07/26 05:51:44;;;;;;;11.77;3.88;;;;;;;16.90;100.00;100490.38;5024956;28;20087;-77
2022/07/26 05:54:09;;;;;;;9.57;3.00;;;;;;;16.93;100.00;100484.59;5025410;28;20530;-75
2022/07/26 05:56:35;;;;;;;9.27;3.13;;;;;;;17.13;100.00;100484.53;5024109;28;20022;-76
2022/07/26 05:59:00;;;;;;;6.83;3.43;;;;;;;17.23;100.00;100474.13;5025228;28;20025;-76
2022/07/26 06:01:28;;;;;;;10.00;2.73;;;;;;;17.41;100.00;100469.91;5007208;28;20363;-76
2022/07/26 06:03:53;;;;;;;10.38;2.95;;;;;;;17.29;100.00;100457.09;5023611;28;20033;-74
2022/07/26 06:06:19;;;;;;;3.50;2.80;;;;;;;17.29;100.00;100467.88;5023957;28;20578;-76
2022/07/26 06:08:44;;;;;;;7.03;2.73;;;;;;;17.09;100.00;100467.97;5025041;28;20442;-77
2022/07/26 06:11:09;;;;;;;7.57;2.80;;;;;;;16.93;100.00;100500.78;5023474;28;20514;-77
2022/07/26 06:13:35;;;;;;;11.80;3.60;;;;;;;16.92;100.00;100526.06;5023749;28;20395;-77
2022/07/26 06:16:00;;;;;;;8.70;3.57;;;;;;;16.74;100.00;100560.88;5023925;28;20275;-77
2022/07/26 06:18:26;;;;;;;8.83;3.20;;;;;;;16.26;100.00;100553.81;5024894;28;20107;-75
2022/07/26 06:20:51;;;;;;;10.80;3.13;;;;;;;16.12;100.00;100573.66;5023369;28;20029;-77
2022/07/26 06:23:17;;;;;;;6.20;2.42;;;;;;;16.08;100.00;100572.41;5024016;28;20471;-76
2022/07/26 06:25:42;;;;;;;4.60;2.00;;;;;;;15.96;100.00;100570.28;5024704;28;20018;-77
2022/07/26 06:28:09;;;;;;;6.35;2.55;;;;;;;16.16;100.00;100580.31;5023511;28;20047;-76
2022/07/26 06:30:35;;;;;;;5.53;1.85;;;;;;;16.55;100.00;100584.94;5023283;28;20474;-76
2022/07/26 06:33:01;;;;;;;;;;;;;;;16.60;100.00;100573.53;5024115;28;20098;-77
2022/07/26 06:35:34;;;;;;;8.18;1.60;;;;;;;16.59;100.00;100579.97;5024718;28;20406;-76
2022/07/26 06:38:01;;;;;;;5.05;1.90;;;;;;;16.49;100.00;100568.78;5020810;28;20057;-76
2022/07/26 06:40:26;;;;;;;;;;;;;;;16.48;100.00;100575.19;5023471;28;20071;-75
2022/07/26 06:42:52;;;;;;;3.95;1.92;;;;;;;16.44;100.00;100583.69;5023496;28;19921;-76
2022/07/26 06:45:17;;;;;;;5.43;1.57;;;;;;;16.23;100.00;100570.38;5023504;28;20036;-75
2022/07/26 06:47:42;;;;;;;1.77;0.80;;;;;;;16.22;100.00;100552.53;5023503;28;20044;-74
2022/07/26 06:50:09;;;;;;;2.13;0.60;;;;;;;16.07;100.00;100531.19;5006974;28;20026;-76
2022/07/26 06:52:34;;;;;;;;;;;;;;;16.09;100.00;100525.59;5023752;28;20041;-76
2022/07/26 06:54:59;;;;;;;;;;;;;;;16.15;100.00;100520.22;5023589;28;20382;-77
2022/07/26 06:57:25;;;;;;;1.20;0.70;;;;;;;16.27;100.00;100495.38;5023305;28;19913;-76
2022/07/26 06:59:51;;;;;;;4.15;1.17;;;;;;;16.22;100.00;100483.38;5023006;28;20034;-76
2022/07/26 07:02:17;;;;;;;3.28;0.60;;;;;;;16.34;100.00;100498.88;5023179;28;20052;-76
2022/07/26 07:04:42;;;;;;;3.13;0.55;;;;;;;16.42;100.00;100486.06;5026469;28;20029;-75
2022/07/26 07:07:08;;;;;;;2.53;0.70;;;;;;;16.57;100.00;100495.78;5026976;28;20048;-76
2022/07/26 07:09:35;;;;;;;5.20;0.70;;;;;;;16.67;100.00;100502.44;5026428;28;20467;-75
2022/07/26 07:12:05;;;;;;;5.18;0.63;;;;;;;16.47;100.00;100474.66;5028347;28;20038;-75
2022/07/26 07:14:31;;;;;;;1.30;0.68;;;;;;;16.49;100.00;100479.84;5023411;28;20421;-75
2022/07/26 07:16:56;;;;;;;4.23;0.67;;;;;;;16.26;100.00;100462.22;5019036;28;20189;-75
2022/07/26 07:19:22;;;;;;;1.45;0.43;;;;;;;16.32;100.00;100482.09;5028263;28;20350;-77
2022/07/26 07:21:48;;;;;;;5.30;0.93;;;;;;;16.36;100.00;100510.28;5028097;28;20021;-75
2022/07/26 07:24:13;;;;;;;3.73;0.67;;;;;;;16.38;100.00;100484.81;5014973;28;20033;-75
2022/07/26 07:26:40;;;;;;;4.33;0.77;;;;;;;16.56;100.00;100496.84;5026858;28;20032;-75
2022/07/26 07:29:05;;;;;;;2.17;0.60;;;;;;;16.66;100.00;100522.31;5026562;28;20025;-75
2022/07/26 07:31:31;;;;;;;2.27;0.70;;;;;;;16.59;100.00;100494.53;5027888;28;20041;-74
2022/07/26 07:33:57;;;;;;;5.97;0.90;;;;;;;16.53;100.00;100467.59;5027807;28;20119;-75
2022/07/26 07:36:22;;;;;;;1.52;0.70;;;;;;;16.52;100.00;100492.91;5026314;28;20064;-76
2022/07/26 07:38:48;;;;;;;3.60;0.70;;;;;;;16.22;100.00;100477.13;5027909;28;20030;-77
2022/07/26 07:41:13;;;;;;;6.20;0.88;;;;;;;16.36;100.00;100494.94;5026385;28;20197;-75
2022/07/26 07:43:39;;;;;;;6.20;0.73;;;;;;;16.71;100.00;100513.59;5026535;28;20474;-75
2022/07/26 07:46:05;;;;;;;2.57;0.83;;;;;;;17.58;100.00;100530.44;5027607;28;20061;-76
2022/07/26 07:48:30;;;;;;;5.57;0.85;;;;;;;18.35;100.00;100452.94;5026508;28;20025;-77
2022/07/26 07:50:56;;;;;;;4.63;1.13;;;;;;;18.64;100.00;100382.19;5026132;28;20489;-76
2022/07/26 07:53:21;;;;;;;4.72;0.90;;;;;;;18.62;100.00;100336.44;5017758;28;20722;-77
2022/07/26 07:55:47;;;;;;;2.07;0.60;;;;;;;18.00;100.00;100317.53;5026644;28;20031;-76
2022/07/26 07:58:14;;;;;;;6.50;0.97;;;;;;;17.74;100.00;100345.53;5028085;28;20470;-77
2022/07/26 08:00:40;;;;;;;4.22;0.70;;;;;;;17.02;100.00;100429.41;5025982;28;20017;-77
2022/07/26 08:03:05;;;;;;;4.70;1.00;;;;;;;16.67;100.00;100507.00;5026303;28;20513;-77
2022/07/26 08:05:31;;;;;;;6.73;1.23;;;;;;;16.56;100.00;100550.75;5026273;28;20021;-76
2022/07/26 08:07:56;;;;;;;2.47;0.60;;;;;;;16.58;100.00;100576.44;5026123;28;20142;-76
2022/07/26 08:10:21;;;;;;;3.83;0.53;;;;;;;16.54;100.00;100542.03;5026898;28;20449;-77
2022/07/26 08:12:47;;;;;;;9.50;0.90;;;;;;;16.35;100.00;100525.63;5027399;28;20131;-76
2022/07/26 08:15:12;;;;;;;3.80;0.70;;;;;;;16.76;100.00;100585.78;5026272;28;20033;-74
2022/07/26 08:17:38;;;;;;;1.70;0.43;;;;;;;16.84;100.00;100529.00;5025518;28;20490;-75
2022/07/26 08:20:04;;;;;;;2.73;0.60;;;;;;;17.79;100.00;100579.78;5026758;28;20029;-76
2022/07/26 08:22:29;;;;;;;2.42;0.70;;;;;;;18.89;100.00;100512.78;5023305;28;20029;-77
2022/07/26 08:24:54;;;;;;;5.33;0.80;;;;;;;19.42;100.00;100302.13;5026983;28;20030;-75
2022/07/26 08:27:20;;;;;;;2.77;0.50;;;;;;;19.42;100.00;100256.94;5025876;28;20034;-76
2022/07/26 08:29:45;;;;;;;2.03;0.40;;;;;;;19.21;100.00;100212.28;5025242;28;20765;-77
2022/07/26 08:32:11;;;;;;;3.13;0.87;;;;;;;18.08;100.00;100171.38;5025480;28;20167;-76
2022/07/26 08:34:36;;;;;;;2.67;0.90;;;;;;;17.56;100.00;100275.28;5025677;28;20302;-77
2022/07/26 08:37:02;;;;;;;3.47;0.40;;;;;;;17.23;100.00;100355.44;5027391;28;20031;-77
2022/07/26 08:39:27;;;;;;;4.28;1.00;;;;;;;16.68;100.00;100505.94;5026654;28;20471;-75
2022/07/26 08:41:53;;;;;;;1.53;0.70;;;;;;;16.43;100.00;100595.47;5026763;28;20037;-76
2022/07/26 08:44:18;;;;;;;3.93;0.77;;;;;;;15.68;100.00;100634.94;5025536;28;20026;-77
2022/07/26 08:46:44;;;;;;;2.57;0.40;;;;;;;15.45;100.00;100664.00;5026547;28;20491;-77
2022/07/26 08:49:10;;;;;;;3.07;0.70;;;;;;;15.35;100.00;100697.44;5026404;28;20645;-75
2022/07/26 08:51:45;;;;;;;2.42;0.65;;;;;;;15.59;100.00;100768.00;5026795;28;20057;-76
2022/07/26 08:54:13;;;;;;;2.72;0.68;;;;;;;15.75;100.00;100719.28;5025221;28;20037;-76
2022/07/26 08:56:51;;;;;;;2.83;0.82;;;;;;;15.71;100.00;100709.09;5025204;28;20021;-76
2022/07/26 08:59:18;;;;;;;3.95;0.88;;;;;;;16.12;100.00;100773.78;5024775;28;20398;-77
2022/07/26 09:02:01;;;;;;;2.40;0.68;;;;;;;16.26;100.00;100688.50;5026221;28;20049;-75
2022/07/26 09:04:30;;;;;;;1.52;0.40;;;;;;;16.80;100.00;100630.19;5025156;28;20448;-75
2022/07/26 09:07:03;;;;;;;1.63;0.40;;;;;;;17.43;100.00;100659.44;5024969;28;20027;-76
2022/07/26 09:09:31;;;;;;;1.52;0.35;;;;;;;17.42;100.00;100564.16;5020586;28;20033;-76
2022/07/26 09:11:57;;;;;;;5.22;0.82;;;;;;;17.86;100.00;100561.72;5026240;28;20021;-76
2022/07/26 09:14:35;;;;;;;3.03;0.93;;;;;;;18.78;100.00;100575.72;5008503;28;20159;-74
2022/07/26 09:17:00;;;;;;;5.47;1.13;;;;;;;19.02;100.00;100484.78;5022349;28;20482;-76
2022/07/26 09:19:27;;;;;;;4.70;1.63;;;;;;;19.37;100.00;100436.28;5024045;28;20048;-77
2022/07/26 09:21:54;;;;;;;;;;;;;;;20.15;100.00;100498.78;5025472;28;20424;-76
2022/07/26 09:24:37;;;;;;;2.67;0.73;;;;;;;20.14;100.00;100224.25;5020825;28;19992;-75
2022/07/26 09:27:05;;;;;;;4.18;0.85;;;;;;;19.60;100.00;100199.16;5020755;28;20072;-76
2022/07/26 09:29:51;;;;;;;1.70;0.50;;;;;;;18.87;100.00;100068.66;5016445;28;20123;-76
2022/07/26 09:32:22;;;;;;;2.80;0.50;;;;;;;18.51;100.00;100119.06;5024770;28;20040;-76
2022/07/26 09:34:50;;;;;;;4.05;0.93;;;;;;;17.93;100.00;100019.69;5025273;28;20482;-75
2022/07/26 09:37:16;;;;;;;1.35;0.70;;;;;;;17.78;100.00;100152.38;5026075;28;20064;-75
2022/07/26 09:40:04;;;;;;;2.55;0.60;;;;;;;17.75;100.00;100224.88;5024527;28;20421;-76
2022/07/26 09:42:29;;;;;;;3.10;0.75;;;;;;;17.93;100.00;100278.94;5020582;28;20079;-76
2022/07/26 09:44:56;;;;;;;3.43;1.03;;;;;;;17.78;100.00;100114.56;5025724;28;20794;-75
2022/07/26 09:47:34;;;;;;;4.30;0.80;;;;;;;17.99;100.00;100229.47;5025640;28;20522;-75
2022/07/26 09:50:09;;;;;;;5.95;1.10;;;;;;;19.66;100.00;100351.75;5011463;28;20033;-75
2022/07/26 09:52:36;;;;;;;5.80;0.73;;;;;;;20.29;96.59;100231.03;5021041;28;20095;-76
2022/07/26 09:55:07;;;;;;;4.13;0.95;;;;;;;20.63;89.64;100129.81;5024376;28;20048;-76
2022/07/26 09:57:34;;;;;;;3.55;0.70;;;;;;;21.44;90.21;100287.00;5018187;28;20036;-76
2022/07/26 10:00:04;;;;;;;4.95;0.98;;;;;;;21.23;81.59;100062.38;5015913;28;20398;-76
2022/07/26 10:02:31;;;;;;;4.30;0.80;;;;;;;20.72;81.23;99972.94;5022205;28;20491;-74
2022/07/26 10:04:56;;;;;;;3.20;1.27;;;;;;;21.34;82.99;100199.09;5023950;28;20030;-73
2022/07/26 10:07:22;;;;;;;2.13;0.70;;;;;;;21.13;79.12;100070.38;5025375;28;20463;-74
2022/07/26 10:10:03;;;;;;;2.90;0.80;;;;;;;20.26;74.28;99792.47;5023779;28;20390;-72
2022/07/26 10:12:31;;;;;;;2.13;0.90;;;;;;;20.38;80.49;100089.47;5024118;28;20798;-76
2022/07/26 10:14:57;;;;;;;4.18;0.75;;;;;;;21.73;81.53;100354.03;5025315;28;20684;-76
2022/07/26 10:17:25;;;;;;;3.53;0.73;;;;;;;22.38;70.68;100111.41;5025035;28;20033;-76
2022/07/26 10:19:54;;;;;;;2.60;0.75;;;;;;;22.56;66.28;100020.47;5023443;28;20091;-76
2022/07/26 10:22:29;;;;;;;2.72;0.63;;;;;;;22.81;62.23;99919.16;5024009;28;20029;-74
2022/07/26 10:24:56;;;;;;;2.80;1.00;;;;;;;22.65;61.49;99828.47;5024076;28;20073;-74
2022/07/26 10:27:41;;;;;;;4.40;0.70;;;;;;;20.85;65.15;99724.88;5015456;28;20040;-75
2022/07/26 10:30:16;;;;;;;4.97;0.90;;;;;;;21.72;66.74;100010.91;5011772;28;20623;-75
2022/07/26 10:32:57;;;;;;;5.72;0.82;;;;;;;21.42;67.72;99995.91;5025782;28;20041;-73
2022/07/26 10:35:33;;;;;;;3.05;1.20;;;;;;;21.76;68.52;100109.84;5023876;28;20049;-77
2022/07/26 10:38:01;;;;;;;4.90;1.35;;;;;;;22.54;63.32;100066.16;5023856;28;20044;-77
2022/07/26 10:40:29;;;;;;;3.53;0.90;;;;;;;22.93;58.57;99891.75;5026873;28;20386;-76
2022/07/26 10:43:14;;;;;;;5.35;1.15;;;;;;;23.14;62.41;100173.09;5029369;28;20037;-74
2022/07/26 10:45:41;;;;;;;5.25;1.00;;;;;;;21.36;58.98;99553.53;5025384;28;20033;-77
2022/07/26 10:48:17;;;;;;;7.43;2.10;;;;;;;20.14;60.58;99492.63;5028830;28;20029;-76
2022/07/26 10:50:51;;;;;;;6.38;1.50;;;;;;;19.21;65.68;99654.91;5028411;28;20041;-76
2022/07/26 10:53:25;;;;;;;17.08;2.83;;;;;;;18.96;66.65;99703.97;5029336;28;20461;-76
2022/07/26 10:55:53;;;;;;;7.88;1.73;;;;;;;19.14;71.40;99951.84;5027574;28;20124;-77
2022/07/26 10:58:20;;;;;;;4.15;1.13;;;;;;;19.42;72.31;100070.16;5028909;28;20378;-76
2022/07/26 11:01:04;;;;;;;6.97;1.65;;;;;;;19.53;70.03;99980.00;5028325;28;20029;-76
2022/07/26 11:03:40;;;;;;;7.47;1.13;;;;;;;19.46;75.72;100141.72;5039874;28;20034;-76
2022/07/26 11:06:13;;;;;;;8.02;1.35;;;;;;;20.85;70.27;100295.41;5024230;28;20116;-76
2022/07/26 11:08:39;;;;;;;8.18;1.90;;;;;;;22.01;61.63;100150.13;5028388;28;20036;-75
2022/07/26 11:11:05;;;;;;;5.15;1.10;;;;;;;22.75;58.77;100116.13;5028140;28;20052;-77
2022/07/26 11:13:32;;;;;;;5.18;0.85;;;;;;;22.45;55.09;99784.84;5027277;28;20703;-77
2022/07/26 11:16:06;;;;;;;8.68;0.90;;;;;;;22.27;55.05;99770.63;5024192;28;20033;-76